Time;durP1;ratioP1;P1;durP2;ratioP2;P2;SDS_P1;SDS_P2;PMS_P1;PMS_P2;Temp;Humidity;BMP_temperature;BMP_pressure;BME280_temperature;BME280_humidity;BME280_pressure;Samples;Min_cycle;Max_cycle;Signal;HPM_P1;HPM_P2
2023/12/11 00:01:35;;;;;;;9.27;3.58;;;;;;;;;;5051754;28;20017;-66
2023/12/11 00:04:00;;;;;;;13.85;4.75;;;;;;;;;;5052056;28;20364;-65
2023/12/11 00:06:26;;;;;;;9.55;3.80;;;;;;;;;;5052090;28;20028;-66
2023/12/11 00:08:51;;;;;;;7.63;3.00;;;;;;;;;;5050574;28;20116;-65
2023/12/11 00:11:19;;;;;;;10.73;3.22;;;;;;;;;;5052014;28;20037;-66
2023/12/11 00:13:45;;;;;;;10.48;4.05;;;;;;;;;;5053183;28;20025;-66
2023/12/11 00:16:10;;;;;;;7.43;3.28;;;;;;;;;;5050578;28;20128;-66
2023/12/11 00:18:35;;;;;;;9.13;3.03;;;;;;;;;;5052079;28;20017;-64
2023/12/11 00:21:01;;;;;;;10.27;2.95;;;;;;;;;;5051954;28;20021;-65
2023/12/11 00:23:26;;;;;;;9.95;3.45;;;;;;;;;;5052038;28;20448;-65
2023/12/11 00:25:52;;;;;;;16.27;3.90;;;;;;;;;;5052017;28;20025;-65
2023/12/11 00:28:17;;;;;;;17.58;3.65;;;;;;;;;;5052037;28;20032;-65
2023/12/11 00:30:43;;;;;;;11.27;3.60;;;;;;;;;;5051642;28;20044;-65
2023/12/11 00:33:08;;;;;;;10.68;3.53;;;;;;;;;;5051835;28;20043;-65
2023/12/11 00:35:34;;;;;;;12.25;2.88;;;;;;;;;;5051857;28;20017;-65
2023/12/11 00:37:59;;;;;;;14.50;3.15;;;;;;;;;;5051944;28;20017;-65
2023/12/11 00:40:25;;;;;;;11.88;3.50;;;;;;;;;;5051890;28;20098;-65
2023/12/11 00:42:50;;;;;;;10.30;3.30;;;;;;;;;;5052330;28;20021;-64
2023/12/11 00:45:15;;;;;;;12.40;2.72;;;;;;;;;;5051921;28;20017;-65
2023/12/11 00:47:41;;;;;;;11.38;3.05;;;;;;;;;;5051754;28;20030;-65
2023/12/11 00:50:07;;;;;;;12.00;3.58;;;;;;;;;;5051873;28;20036;-64
2023/12/11 00:52:32;;;;;;;6.30;2.40;;;;;;;;;;5051560;28;20021;-65
2023/12/11 00:54:58;;;;;;;20.15;3.20;;;;;;;;;;5051761;28;20394;-64
2023/12/11 00:57:23;;;;;;;16.40;2.75;;;;;;;;;;5051662;28;20052;-64
2023/12/11 00:59:48;;;;;;;6.72;2.65;;;;;;;;;;5051530;28;20025;-64
2023/12/11 01:02:14;;;;;;;8.38;2.25;;;;;;;;;;5051642;28;20049;-64
2023/12/11 01:04:39;;;;;;;6.20;1.88;;;;;;;;;;5050298;28;20033;-65
2023/12/11 01:07:05;;;;;;;13.80;2.33;;;;;;;;;;5051706;28;20021;-64
2023/12/11 01:09:30;;;;;;;12.45;2.10;;;;;;;;;;5051598;28;20460;-64
2023/12/11 01:11:55;;;;;;;15.00;3.10;;;;;;;;;;5051348;28;20017;-64
2023/12/11 01:14:21;;;;;;;14.98;3.42;;;;;;;;;;5062030;28;20040;-64
2023/12/11 01:16:46;;;;;;;12.00;2.72;;;;;;;;;;5072076;28;20028;-65
2023/12/11 01:19:12;;;;;;;16.55;2.38;;;;;;;;;;5072065;28;20021;-65
2023/12/11 01:21:37;;;;;;;14.93;3.08;;;;;;;;;;5075571;28;20035;-64
2023/12/11 01:24:03;;;;;;;18.38;3.40;;;;;;;;;;5075562;28;20039;-64
2023/12/11 01:26:28;;;;;;;11.50;3.05;;;;;;;;;;5075608;28;20036;-64
2023/12/11 01:28:54;;;;;;;22.38;3.60;;;;;;;;;;5074114;28;20042;-64
2023/12/11 01:31:19;;;;;;;5.07;1.83;;;;;;;;;;5059900;28;20024;-64
2023/12/11 01:33:44;;;;;;;11.07;3.58;;;;;;;;;;5055526;28;20425;-65
2023/12/11 01:36:10;;;;;;;12.25;3.35;;;;;;;;;;5055346;28;20025;-64
2023/12/11 01:38:35;;;;;;;18.33;3.53;;;;;;;;;;5055190;28;20040;-65
2023/12/11 01:41:01;;;;;;;9.93;2.90;;;;;;;;;;5055371;28;20057;-65
2023/12/11 01:43:27;;;;;;;11.07;2.63;;;;;;;;;;5054979;28;20062;-65
2023/12/11 01:46:04;;;;;;;16.60;3.17;;;;;;;;;;5055276;28;20025;-65
2023/12/11 01:48:31;;;;;;;8.88;2.95;;;;;;;;;;5053947;28;20021;-65
2023/12/11 01:50:56;;;;;;;13.20;2.75;;;;;;;;;;5055113;28;20466;-64
2023/12/11 01:53:22;;;;;;;16.70;3.08;;;;;;;;;;5054899;28;20056;-65
2023/12/11 01:55:49;;;;;;;15.18;3.08;;;;;;;;;;5055075;28;20347;-65
2023/12/11 01:58:16;;;;;;;9.93;2.88;;;;;;;;;;5054949;28;20051;-65
2023/12/11 02:00:41;;;;;;;19.17;3.38;;;;;;;;;;5053795;28;20048;-65
2023/12/11 02:03:09;;;;;;;12.07;2.40;;;;;;;;;;5054910;28;20025;-65
2023/12/11 02:05:34;;;;;;;11.77;2.58;;;;;;;;;;5054929;28;20021;-65
2023/12/11 02:08:00;;;;;;;8.35;2.03;;;;;;;;;;5054865;28;20142;-65
2023/12/11 02:10:25;;;;;;;11.40;2.40;;;;;;;;;;5054707;28;20075;-65
2023/12/11 02:12:51;;;;;;;9.98;2.95;;;;;;;;;;5054691;28;20031;-65
2023/12/11 02:15:45;;;;;;;12.43;2.78;;;;;;;;;;5072492;28;20062;-65
2023/12/11 02:18:13;;;;;;;17.80;2.83;;;;;;;;;;5074674;28;20029;-65
2023/12/11 02:20:39;;;;;;;11.52;2.90;;;;;;;;;;5074440;28;20031;-65
2023/12/11 02:23:10;;;;;;;12.65;2.50;;;;;;;;;;5074536;28;20103;-65
2023/12/11 02:25:37;;;;;;;18.35;3.28;;;;;;;;;;5073206;28;20099;-65
2023/12/11 02:28:04;;;;;;;11.30;2.53;;;;;;;;;;5074551;28;20035;-65
2023/12/11 02:30:33;;;;;;;13.50;2.95;;;;;;;;;;5065844;28;20402;-65
2023/12/11 02:32:58;;;;;;;9.18;2.25;;;;;;;;;;5053851;28;20029;-65
2023/12/11 02:35:23;;;;;;;12.88;2.30;;;;;;;;;;5054388;28;20534;-65
2023/12/11 02:37:49;;;;;;;9.30;2.25;;;;;;;;;;5054195;28;20084;-65
2023/12/11 02:40:14;;;;;;;7.05;2.13;;;;;;;;;;5053971;28;20068;-65
2023/12/11 02:42:48;;;;;;;11.63;2.30;;;;;;;;;;5054130;28;20027;-64
2023/12/11 02:45:14;;;;;;;7.85;2.15;;;;;;;;;;5054234;28;20083;-65
2023/12/11 02:47:40;;;;;;;11.07;2.70;;;;;;;;;;5054016;28;20032;-65
2023/12/11 02:50:06;;;;;;;10.60;2.60;;;;;;;;;;5054038;28;20040;-65
2023/12/11 02:52:31;;;;;;;9.23;2.40;;;;;;;;;;5053736;28;20025;-65
2023/12/11 02:54:57;;;;;;;8.88;2.17;;;;;;;;;;5053704;28;20032;-64
2023/12/11 02:57:22;;;;;;;5.35;1.88;;;;;;;;;;5053910;28;20382;-66
2023/12/11 02:59:47;;;;;;;11.15;3.00;;;;;;;;;;5053797;28;20033;-65
2023/12/11 03:02:13;;;;;;;16.05;2.97;;;;;;;;;;5053838;28;20028;-66
2023/12/11 03:04:38;;;;;;;9.90;2.88;;;;;;;;;;5053689;28;20017;-66
2023/12/11 03:07:04;;;;;;;14.07;2.90;;;;;;;;;;5053877;28;20458;-65
2023/12/11 03:09:29;;;;;;;13.05;3.25;;;;;;;;;;5053412;28;20028;-66
2023/12/11 03:11:54;;;;;;;12.18;3.38;;;;;;;;;;5053627;28;20516;-66
2023/12/11 03:14:20;;;;;;;12.07;3.30;;;;;;;;;;5063560;28;20098;-65
2023/12/11 03:16:48;;;;;;;15.88;3.20;;;;;;;;;;5073454;28;20470;-65
2023/12/11 03:19:15;;;;;;;15.20;3.55;;;;;;;;;;5073310;28;20064;-65
2023/12/11 03:21:41;;;;;;;11.90;3.38;;;;;;;;;;5073424;28;20077;-66
2023/12/11 03:24:06;;;;;;;15.73;4.03;;;;;;;;;;5073189;28;20032;-66
2023/12/11 03:26:32;;;;;;;13.23;3.15;;;;;;;;;;5073295;28;20024;-66
2023/12/11 03:28:57;;;;;;;8.70;3.30;;;;;;;;;;5073338;28;20123;-65
2023/12/11 03:31:23;;;;;;;8.63;2.85;;;;;;;;;;5057262;28;20016;-65
2023/12/11 03:33:48;;;;;;;9.88;3.17;;;;;;;;;;5053237;28;20025;-66
2023/12/11 03:36:13;;;;;;;14.77;3.08;;;;;;;;;;5053034;28;20029;-65
2023/12/11 03:38:39;;;;;;;9.20;2.58;;;;;;;;;;5052901;28;20017;-67
2023/12/11 03:41:04;;;;;;;11.85;3.00;;;;;;;;;;5053122;28;20399;-65
2023/12/11 03:43:30;;;;;;;7.32;2.40;;;;;;;;;;5052192;28;20021;-65
2023/12/11 03:45:55;;;;;;;10.27;2.42;;;;;;;;;;5052997;28;20423;-66
2023/12/11 03:48:21;;;;;;;4.25;1.67;;;;;;;;;;5054241;28;20116;-65
2023/12/11 03:50:47;;;;;;;4.60;1.95;;;;;;;;;;5055776;28;20559;-65
2023/12/11 03:53:13;;;;;;;11.68;2.53;;;;;;;;;;5052703;28;20067;-65
2023/12/11 03:55:38;;;;;;;8.93;2.70;;;;;;;;;;5052862;28;20021;-65
2023/12/11 03:58:04;;;;;;;11.52;2.58;;;;;;;;;;5052839;28;20032;-65
2023/12/11 04:00:29;;;;;;;8.32;2.30;;;;;;;;;;5052835;28;20035;-65
2023/12/11 04:02:55;;;;;;;7.75;2.65;;;;;;;;;;5052831;28;20103;-64
2023/12/11 04:05:20;;;;;;;6.72;1.60;;;;;;;;;;5052817;28;20029;-65
2023/12/11 04:07:45;;;;;;;8.23;1.90;;;;;;;;;;5052590;28;20036;-65
2023/12/11 04:10:11;;;;;;;18.02;3.35;;;;;;;;;;5052721;28;20035;-65
2023/12/11 04:12:37;;;;;;;13.50;3.00;;;;;;;;;;5052670;28;20021;-64
2023/12/11 04:15:05;;;;;;;9.20;2.20;;;;;;;;;;5068378;28;20025;-65
2023/12/11 04:17:30;;;;;;;10.27;2.83;;;;;;;;;;5072680;28;20029;-65
2023/12/11 04:19:57;;;;;;;8.07;2.75;;;;;;;;;;5072572;28;20024;-65
2023/12/11 04:22:22;;;;;;;11.68;3.00;;;;;;;;;;5072457;28;20055;-65
2023/12/11 04:24:48;;;;;;;6.70;2.47;;;;;;;;;;5072686;28;20017;-65
2023/12/11 04:27:13;;;;;;;7.05;3.15;;;;;;;;;;5072597;28;20066;-65
2023/12/11 04:29:39;;;;;;;9.63;3.33;;;;;;;;;;5070934;28;20485;-65
2023/12/11 04:32:05;;;;;;;9.93;3.35;;;;;;;;;;5052422;28;20017;-66
2023/12/11 04:34:30;;;;;;;12.93;3.00;;;;;;;;;;5051240;28;20021;-66
2023/12/11 04:36:55;;;;;;;11.35;2.70;;;;;;;;;;5051992;28;20021;-65
2023/12/11 04:39:21;;;;;;;13.25;2.75;;;;;;;;;;5052270;28;20382;-66
2023/12/11 04:41:46;;;;;;;11.07;3.15;;;;;;;;;;5052366;28;20142;-65
2023/12/11 04:44:12;;;;;;;10.45;3.05;;;;;;;;;;5052485;28;20025;-66
2023/12/11 04:46:37;;;;;;;12.88;3.05;;;;;;;;;;5052101;28;20463;-65
2023/12/11 04:49:02;;;;;;;11.05;3.05;;;;;;;;;;5052399;28;20455;-66
2023/12/11 04:51:28;;;;;;;8.40;3.75;;;;;;;;;;5052084;28;20029;-67
2023/12/11 04:53:53;;;;;;;10.25;3.58;;;;;;;;;;5052128;28;20045;-65
2023/12/11 04:56:19;;;;;;;9.35;3.95;;;;;;;;;;5055441;28;20471;-66
2023/12/11 04:58:44;;;;;;;10.77;5.20;;;;;;;;;;5056203;28;20107;-65
2023/12/11 05:01:10;;;;;;;14.73;5.20;;;;;;;;;;5056134;28;20037;-66
2023/12/11 05:03:35;;;;;;;13.02;5.00;;;;;;;;;;5055961;28;20104;-65
2023/12/11 05:06:01;;;;;;;12.93;5.00;;;;;;;;;;5055777;28;20123;-67
2023/12/11 05:08:26;;;;;;;10.93;4.70;;;;;;;;;;5056009;28;20029;-65
2023/12/11 05:10:52;;;;;;;5.75;4.07;;;;;;;;;;5055849;28;20032;-65
2023/12/11 05:13:17;;;;;;;10.55;4.78;;;;;;;;;;5057103;28;20025;-65
2023/12/11 05:15:42;;;;;;;9.73;5.43;;;;;;;;;;5075950;28;20031;-66
2023/12/11 05:18:08;;;;;;;12.95;5.75;;;;;;;;;;5075851;28;20113;-65
2023/12/11 05:20:33;;;;;;;14.80;6.75;;;;;;;;;;5075572;28;20376;-65
2023/12/11 05:22:58;;;;;;;12.38;5.50;;;;;;;;;;5075693;28;20089;-65
2023/12/11 05:25:24;;;;;;;11.65;5.70;;;;;;;;;;5075671;28;20040;-65
2023/12/11 05:27:49;;;;;;;10.95;5.90;;;;;;;;;;5075688;28;20020;-65
2023/12/11 05:30:15;;;;;;;9.45;4.68;;;;;;;;;;5068921;28;20032;-65
2023/12/11 05:32:41;;;;;;;7.28;4.13;;;;;;;;;;5055395;28;20482;-65
2023/12/11 05:35:07;;;;;;;12.32;5.07;;;;;;;;;;5055248;28;20057;-64
2023/12/11 05:37:32;;;;;;;10.45;5.28;;;;;;;;;;5053941;28;20127;-65
2023/12/11 05:40:00;;;;;;;7.43;3.83;;;;;;;;;;5055181;28;20021;-65
2023/12/11 05:42:26;;;;;;;7.70;3.50;;;;;;;;;;5055155;28;20021;-64
2023/12/11 05:44:51;;;;;;;9.75;4.10;;;;;;;;;;5055230;28;20025;-65
2023/12/11 05:47:16;;;;;;;6.72;3.00;;;;;;;;;;5055054;28;20047;-65
2023/12/11 05:49:42;;;;;;;7.63;3.25;;;;;;;;;;5055202;28;20021;-64
2023/12/11 05:52:07;;;;;;;8.00;3.03;;;;;;;;;;5055190;28;20029;-64
2023/12/11 05:54:33;;;;;;;4.90;2.90;;;;;;;;;;5054877;28;20072;-64
2023/12/11 05:56:58;;;;;;;5.05;2.67;;;;;;;;;;5055158;28;20053;-64
2023/12/11 05:59:24;;;;;;;10.55;3.00;;;;;;;;;;5054914;28;20043;-65
2023/12/11 06:01:49;;;;;;;5.30;3.17;;;;;;;;;;5054951;28;20079;-64
2023/12/11 06:04:14;;;;;;;5.30;3.05;;;;;;;;;;5054769;28;20028;-64
2023/12/11 06:06:40;;;;;;;6.28;2.90;;;;;;;;;;5053992;28;20017;-64
2023/12/11 06:09:05;;;;;;;6.45;3.08;;;;;;;;;;5054850;28;20108;-64
2023/12/11 06:11:31;;;;;;;12.57;3.45;;;;;;;;;;5054604;28;20466;-64
2023/12/11 06:13:59;;;;;;;6.90;3.17;;;;;;;;;;5061303;28;20048;-64
2023/12/11 06:16:24;;;;;;;6.10;2.90;;;;;;;;;;5074376;28;20031;-64
2023/12/11 06:18:50;;;;;;;7.95;4.30;;;;;;;;;;5074484;28;20029;-64
2023/12/11 06:21:19;;;;;;;5.50;3.15;;;;;;;;;;5074504;28;20488;-64
2023/12/11 06:23:45;;;;;;;6.50;4.10;;;;;;;;;;5074587;28;20020;-64
2023/12/11 06:26:24;;;;;;;6.93;3.95;;;;;;;;;;5074552;28;20028;-65
2023/12/11 06:28:50;;;;;;;9.32;4.25;;;;;;;;;;5074467;28;20028;-65
2023/12/11 06:31:15;;;;;;;7.45;4.40;;;;;;;;;;5059134;28;20024;-65
2023/12/11 06:33:40;;;;;;;8.95;4.40;;;;;;;;;;5054319;28;20371;-66
2023/12/11 06:36:06;;;;;;;7.28;4.57;;;;;;;;;;5054172;28;20425;-67
2023/12/11 06:38:32;;;;;;;6.82;3.47;;;;;;;;;;5054272;28;20498;-65
2023/12/11 06:40:57;;;;;;;9.60;4.38;;;;;;;;;;5054097;28;20102;-66
2023/12/11 06:43:22;;;;;;;9.80;4.00;;;;;;;;;;5054173;28;20356;-65
2023/12/11 06:45:48;;;;;;;8.10;3.83;;;;;;;;;;5054221;28;20078;-66
2023/12/11 06:48:13;;;;;;;9.13;4.15;;;;;;;;;;5053800;28;20033;-66
2023/12/11 06:50:41;;;;;;;11.15;4.18;;;;;;;;;;5054050;28;20393;-66
2023/12/11 06:53:06;;;;;;;7.93;4.10;;;;;;;;;;5053708;28;20127;-66
2023/12/11 06:55:31;;;;;;;7.63;4.53;;;;;;;;;;5054473;28;20862;-65
2023/12/11 06:57:57;;;;;;;10.38;4.93;;;;;;;;;;5054113;28;20040;-65
2023/12/11 07:00:23;;;;;;;8.98;4.57;;;;;;;;;;5054176;28;20028;-66
2023/12/11 07:02:48;;;;;;;8.43;5.03;;;;;;;;;;5053568;28;20181;-65
2023/12/11 07:05:13;;;;;;;7.72;4.05;;;;;;;;;;5053687;28;20028;-64
2023/12/11 07:07:39;;;;;;;9.13;3.97;;;;;;;;;;5053518;28;20025;-64
2023/12/11 07:10:05;;;;;;;7.75;4.20;;;;;;;;;;5053563;28;20032;-64
2023/12/11 07:12:30;;;;;;;8.00;3.58;;;;;;;;;;5053622;28;20496;-64
2023/12/11 07:14:56;;;;;;;6.47;3.10;;;;;;;;;;5068211;28;20048;-64
2023/12/11 07:17:24;;;;;;;7.70;3.50;;;;;;;;;;5073392;28;20505;-64
2023/12/11 07:19:50;;;;;;;6.80;3.40;;;;;;;;;;5073437;28;20032;-64
2023/12/11 07:22:15;;;;;;;8.13;3.72;;;;;;;;;;5073398;28;20338;-64
2023/12/11 07:24:40;;;;;;;5.90;3.35;;;;;;;;;;5073379;28;20065;-64
2023/12/11 07:27:06;;;;;;;7.40;3.65;;;;;;;;;;5073284;28;20032;-64
2023/12/11 07:29:31;;;;;;;9.20;3.47;;;;;;;;;;5072482;28;20029;-65
2023/12/11 07:31:57;;;;;;;5.22;3.30;;;;;;;;;;5052149;28;20541;-65
2023/12/11 07:34:22;;;;;;;9.23;4.72;;;;;;;;;;5052695;28;20048;-64
2023/12/11 07:36:51;;;;;;;8.70;4.88;;;;;;;;;;5052527;28;20029;-64
2023/12/11 07:39:17;;;;;;;9.40;4.38;;;;;;;;;;5052625;28;20104;-65
2023/12/11 07:41:42;;;;;;;9.45;3.80;;;;;;;;;;5053584;28;20116;-66
2023/12/11 07:44:08;;;;;;;11.73;3.70;;;;;;;;;;5053080;28;20363;-66
2023/12/11 07:46:33;;;;;;;7.70;2.85;;;;;;;;;;5047210;28;20359;-65
2023/12/11 07:48:58;;;;;;;6.65;3.65;;;;;;;;;;5056599;28;20071;-65
2023/12/11 07:51:24;;;;;;;8.15;4.50;;;;;;;;;;5055249;28;20029;-65
2023/12/11 07:53:50;;;;;;;9.20;2.97;;;;;;;;;;5055285;28;21402;-64
2023/12/11 07:56:22;;;;;;;4.32;2.40;;;;;;;;;;5059339;28;20038;-65
2023/12/11 07:58:49;;;;;;;4.55;1.98;;;;;;;;;;5041260;28;20029;-64
2023/12/11 08:01:14;;;;;;;5.38;2.60;;;;;;;;;;5060395;28;20028;-64
2023/12/11 08:03:40;;;;;;;4.30;2.00;;;;;;;;;;5057952;28;20039;-65
2023/12/11 08:06:05;;;;;;;4.63;2.40;;;;;;;;;;5052122;28;20470;-66
2023/12/11 08:08:31;;;;;;;6.47;3.10;;;;;;;;;;5052356;28;20036;-66
2023/12/11 08:10:56;;;;;;;8.77;2.50;;;;;;;;;;5051910;28;20016;-66
2023/12/11 08:13:21;;;;;;;7.93;3.50;;;;;;;;;;5057768;28;20108;-65
2023/12/11 08:15:47;;;;;;;6.72;2.90;;;;;;;;;;5052116;28;20033;-66
2023/12/11 08:18:12;;;;;;;6.18;2.70;;;;;;;;;;5052239;28;20033;-66
2023/12/11 08:20:38;;;;;;;13.68;6.82;;;;;;;;;;5052182;28;20029;-66
2023/12/11 08:23:03;;;;;;;8.52;2.97;;;;;;;;;;5066684;28;20385;-65
2023/12/11 08:25:29;;;;;;;6.43;3.50;;;;;;;;;;5072405;28;20025;-64
2023/12/11 08:27:54;;;;;;;6.20;3.15;;;;;;;;;;5068798;28;20017;-65
2023/12/11 08:30:20;;;;;;;10.07;4.95;;;;;;;;;;5053626;28;20025;-64
2023/12/11 08:32:46;;;;;;;10.73;6.78;;;;;;;;;;5056165;28;20029;-65
2023/12/11 08:35:11;;;;;;;9.43;3.60;;;;;;;;;;5056358;28;20029;-64
2023/12/11 08:37:37;;;;;;;11.55;5.65;;;;;;;;;;5055985;28;20033;-64
2023/12/11 08:40:06;;;;;;;19.08;8.10;;;;;;;;;;5055885;28;20243;-64
2023/12/11 08:42:33;;;;;;;8.80;3.80;;;;;;;;;;5072142;28;20378;-65
2023/12/11 08:44:58;;;;;;;8.80;4.35;;;;;;;;;;5076167;28;20020;-64
2023/12/11 08:47:24;;;;;;;8.00;4.30;;;;;;;;;;5065692;28;20033;-64
2023/12/11 08:49:50;;;;;;;15.40;5.55;;;;;;;;;;5054307;28;20094;-65
2023/12/11 08:52:15;;;;;;;15.80;6.15;;;;;;;;;;5055922;28;20041;-64
2023/12/11 08:54:41;;;;;;;12.02;5.20;;;;;;;;;;5055854;28;20028;-65
2023/12/11 08:57:06;;;;;;;26.65;11.05;;;;;;;;;;5069518;28;20485;-64
2023/12/11 08:59:32;;;;;;;13.48;7.53;;;;;;;;;;5056256;28;20107;-64
2023/12/11 09:01:57;;;;;;;19.73;8.55;;;;;;;;;;5055604;28;20444;-65
2023/12/11 09:04:23;;;;;;;12.25;7.60;;;;;;;;;;5055757;28;20039;-65
2023/12/11 09:06:48;;;;;;;9.60;5.30;;;;;;;;;;5055598;28;20486;-65
2023/12/11 09:09:14;;;;;;;6.65;3.50;;;;;;;;;;5055532;28;20029;-65
2023/12/11 09:11:39;;;;;;;8.27;3.75;;;;;;;;;;5055053;28;20029;-65
2023/12/11 09:14:05;;;;;;;7.47;2.80;;;;;;;;;;5055531;28;20032;-64
2023/12/11 09:16:30;;;;;;;6.15;3.33;;;;;;;;;;5055650;28;20021;-65
2023/12/11 09:18:56;;;;;;;6.35;2.65;;;;;;;;;;5055323;28;20017;-65
2023/12/11 09:21:22;;;;;;;7.07;2.67;;;;;;;;;;5055390;28;20029;-65
2023/12/11 09:23:48;;;;;;;6.22;2.83;;;;;;;;;;5055147;28;20616;-65
2023/12/11 09:26:13;;;;;;;7.20;2.78;;;;;;;;;;5055207;28;20513;-65
2023/12/11 09:28:39;;;;;;;7.43;3.00;;;;;;;;;;5055281;28;20104;-65
2023/12/11 09:31:05;;;;;;;8.95;3.10;;;;;;;;;;5054958;28;20102;-66
2023/12/11 09:33:30;;;;;;;12.48;4.13;;;;;;;;;;5054874;28;20497;-65
2023/12/11 09:35:56;;;;;;;6.90;3.10;;;;;;;;;;5054752;28;20031;-65
2023/12/11 09:38:22;;;;;;;5.47;3.20;;;;;;;;;;5055192;28;20116;-65
2023/12/11 09:40:47;;;;;;;6.35;3.03;;;;;;;;;;5056340;28;20470;-65
2023/12/11 09:43:14;;;;;;;18.70;8.82;;;;;;;;;;5074094;28;20029;-64
2023/12/11 09:45:41;;;;;;;15.43;8.13;;;;;;;;;;5074867;28;20025;-65
2023/12/11 09:48:06;;;;;;;41.67;21.67;;;;;;;;;;5058726;28;20032;-66
2023/12/11 09:50:32;;;;;;;23.35;14.48;;;;;;;;;;5054884;28;20028;-66
2023/12/11 09:52:59;;;;;;;14.40;6.82;;;;;;;;;;5054621;28;20055;-66
2023/12/11 09:55:25;;;;;;;14.10;4.70;;;;;;;;;;5053895;28;20421;-65
2023/12/11 09:57:51;;;;;;;14.32;4.18;;;;;;;;;;5055743;28;20083;-66
2023/12/11 10:00:17;;;;;;;11.18;5.07;;;;;;;;;;5054244;28;20075;-65
2023/12/11 10:02:46;;;;;;;18.25;7.43;;;;;;;;;;5054777;28;20021;-67
2023/12/11 10:05:17;;;;;;;13.15;6.57;;;;;;;;;;5054780;28;20154;-65
2023/12/11 10:07:43;;;;;;;18.73;8.90;;;;;;;;;;5054605;28;20159;-66
2023/12/11 10:10:26;;;;;;;17.13;8.55;;;;;;;;;;5053870;28;20116;-66
2023/12/11 10:12:55;;;;;;;17.40;10.02;;;;;;;;;;5054549;28;20032;-65
2023/12/11 10:15:31;;;;;;;21.40;14.90;;;;;;;;;;5054439;28;20158;-67
2023/12/11 10:18:05;;;;;;;22.05;16.52;;;;;;;;;;5054211;28;20032;-67
2023/12/11 10:20:32;;;;;;;16.35;8.55;;;;;;;;;;5054280;28;20032;-66
2023/12/11 10:22:57;;;;;;;11.95;4.65;;;;;;;;;;5054275;28;20228;-67
2023/12/11 10:25:27;;;;;;;11.82;6.00;;;;;;;;;;5054029;28;20115;-66
2023/12/11 10:28:07;;;;;;;9.73;6.00;;;;;;;;;;5053933;28;20021;-67
2023/12/11 10:30:35;;;;;;;17.45;9.57;;;;;;;;;;5054033;28;20336;-66
2023/12/11 10:33:02;;;;;;;18.10;8.95;;;;;;;;;;5054110;28;20064;-66
2023/12/11 10:35:27;;;;;;;34.72;17.75;;;;;;;;;;5053840;28;20029;-65
2023/12/11 10:38:02;;;;;;;31.05;15.80;;;;;;;;;;5053871;28;20029;-65
2023/12/11 10:40:39;;;;;;;27.30;13.55;;;;;;;;;;5053964;28;20025;-65
2023/12/11 10:43:05;;;;;;;29.85;15.85;;;;;;;;;;5053996;28;20032;-65
2023/12/11 10:45:32;;;;;;;110.85;28.70;;;;;;;;;;5053533;28;20104;-65
2023/12/11 10:47:58;;;;;;;46.15;18.10;;;;;;;;;;5053386;28;20041;-65
2023/12/11 10:50:25;;;;;;;29.90;11.32;;;;;;;;;;5053722;28;20383;-65
2023/12/11 10:52:50;;;;;;;14.43;7.30;;;;;;;;;;5052893;28;20087;-65
2023/12/11 10:55:16;;;;;;;20.73;8.70;;;;;;;;;;5053740;28;20560;-65
2023/12/11 10:57:43;;;;;;;45.03;12.88;;;;;;;;;;5069774;28;20508;-65
2023/12/11 11:00:13;;;;;;;12.73;5.70;;;;;;;;;;5052420;28;20490;-65
2023/12/11 11:02:43;;;;;;;13.30;5.28;;;;;;;;;;5053372;28;20056;-66
2023/12/11 11:05:09;;;;;;;18.20;6.20;;;;;;;;;;5053487;28;20390;-66
2023/12/11 11:07:36;;;;;;;11.25;4.60;;;;;;;;;;5054044;28;20021;-65
2023/12/11 11:10:04;;;;;;;8.73;3.85;;;;;;;;;;5052933;28;20446;-65
2023/12/11 11:12:35;;;;;;;11.35;3.33;;;;;;;;;;5050257;28;20056;-65
2023/12/11 11:15:01;;;;;;;10.95;3.42;;;;;;;;;;5053215;28;20075;-65
2023/12/11 11:17:58;;;;;;;8.07;3.00;;;;;;;;;;5052219;28;20021;-66
2023/12/11 11:20:25;;;;;;;10.25;3.15;;;;;;;;;;5052359;28;20037;-66
2023/12/11 11:22:51;;;;;;;11.07;3.22;;;;;;;;;;5052991;28;20029;-65
2023/12/11 11:25:32;;;;;;;9.13;2.80;;;;;;;;;;5053101;28;20033;-65
2023/12/11 11:27:58;;;;;;;6.95;3.42;;;;;;;;;;5052578;28;20433;-66
2023/12/11 11:30:42;;;;;;;9.77;3.05;;;;;;;;;;5052300;28;20021;-65
2023/12/11 11:33:08;;;;;;;7.07;2.45;;;;;;;;;;5053975;28;20079;-65
2023/12/11 11:35:47;;;;;;;10.55;2.25;;;;;;;;;;5052685;28;20055;-65
2023/12/11 11:38:15;;;;;;;5.85;2.28;;;;;;;;;;5052729;28;20060;-65
2023/12/11 11:40:43;;;;;;;9.25;1.95;;;;;;;;;;5053740;28;20474;-65
2023/12/11 11:43:09;;;;;;;6.57;2.20;;;;;;;;;;5072829;28;20044;-65
2023/12/11 11:45:35;;;;;;;8.50;2.33;;;;;;;;;;5072656;28;20032;-65
2023/12/11 11:48:00;;;;;;;9.15;2.45;;;;;;;;;;5057291;28;20021;-65
2023/12/11 11:50:26;;;;;;;8.52;3.05;;;;;;;;;;5052251;28;20029;-65
2023/12/11 11:53:01;;;;;;;12.98;3.67;;;;;;;;;;5051201;28;20084;-65
2023/12/11 11:55:27;;;;;;;7.22;3.35;;;;;;;;;;5052435;28;20021;-65
2023/12/11 11:57:56;;;;;;;11.68;3.63;;;;;;;;;;5051108;28;20115;-65
2023/12/11 12:00:22;;;;;;;9.40;3.53;;;;;;;;;;5052092;28;20120;-65
2023/12/11 12:03:04;;;;;;;9.32;4.43;;;;;;;;;;5052409;28;20029;-65
2023/12/11 12:05:36;;;;;;;12.30;5.63;;;;;;;;;;5051440;28;20027;-65
2023/12/11 12:08:05;;;;;;;18.17;5.30;;;;;;;;;;5052679;28;20060;-65
2023/12/11 12:10:31;;;;;;;9.52;5.00;;;;;;;;;;5052228;28;20083;-66
2023/12/11 12:12:57;;;;;;;14.95;4.93;;;;;;;;;;5052323;28;20486;-65
2023/12/11 12:15:22;;;;;;;9.73;3.08;;;;;;;;;;5051091;28;20485;-66
2023/12/11 12:17:48;;;;;;;10.65;3.03;;;;;;;;;;5052148;28;20382;-66
2023/12/11 12:20:16;;;;;;;12.20;3.13;;;;;;;;;;5051789;28;20048;-65
2023/12/11 12:22:57;;;;;;;10.77;3.28;;;;;;;;;;5051831;28;20460;-66
2023/12/11 12:25:23;;;;;;;9.02;3.10;;;;;;;;;;5052136;28;20116;-65
2023/12/11 12:27:51;;;;;;;7.55;2.95;;;;;;;;;;5052040;28;20407;-65
2023/12/11 12:30:19;;;;;;;10.80;3.20;;;;;;;;;;5051969;28;20378;-66
2023/12/11 12:32:48;;;;;;;13.88;4.38;;;;;;;;;;5051164;28;20029;-66
2023/12/11 12:35:15;;;;;;;13.38;4.20;;;;;;;;;;5051914;28;20029;-67
2023/12/11 12:37:41;;;;;;;10.73;3.78;;;;;;;;;;5051771;28;20079;-66
2023/12/11 12:40:07;;;;;;;12.57;4.05;;;;;;;;;;5050270;28;20041;-66
2023/12/11 12:42:33;;;;;;;12.13;3.97;;;;;;;;;;5068160;28;20052;-66
2023/12/11 12:44:59;;;;;;;11.48;3.97;;;;;;;;;;5072220;28;20373;-66
2023/12/11 12:47:24;;;;;;;9.73;3.35;;;;;;;;;;5060460;28;20043;-66
2023/12/11 12:49:50;;;;;;;14.90;3.20;;;;;;;;;;5051245;28;20029;-66
2023/12/11 12:52:23;;;;;;;8.98;2.58;;;;;;;;;;5051583;28;20048;-66
2023/12/11 12:54:49;;;;;;;9.75;2.55;;;;;;;;;;5051814;28;20116;-66
2023/12/11 12:57:16;;;;;;;12.45;3.17;;;;;;;;;;5051950;28;20420;-65
2023/12/11 12:59:41;;;;;;;14.30;3.22;;;;;;;;;;5051779;28;20025;-65
2023/12/11 13:02:17;;;;;;;15.25;3.70;;;;;;;;;;5051677;28;20035;-66
2023/12/11 13:04:54;;;;;;;10.13;3.17;;;;;;;;;;5051502;28;20056;-65
2023/12/11 13:07:21;;;;;;;10.90;3.60;;;;;;;;;;5052785;28;20071;-65
2023/12/11 13:09:47;;;;;;;14.18;4.28;;;;;;;;;;5052182;28;20032;-67
2023/12/11 13:12:17;;;;;;;14.70;3.05;;;;;;;;;;5051455;28;20494;-66
2023/12/11 13:14:43;;;;;;;8.45;2.92;;;;;;;;;;5051141;28;20029;-67
2023/12/11 13:17:08;;;;;;;11.02;3.00;;;;;;;;;;5054275;28;20474;-66
2023/12/11 13:19:34;;;;;;;10.95;2.42;;;;;;;;;;5055125;28;20154;-66
2023/12/11 13:21:59;;;;;;;13.10;2.95;;;;;;;;;;5055145;28;20085;-66
2023/12/11 13:24:25;;;;;;;12.60;3.63;;;;;;;;;;5055119;28;20096;-66
2023/12/11 13:26:50;;;;;;;11.18;2.60;;;;;;;;;;5055136;28;20050;-66
2023/12/11 13:29:15;;;;;;;12.35;3.70;;;;;;;;;;5055223;28;20021;-66
2023/12/11 13:31:41;;;;;;;10.75;3.25;;;;;;;;;;5055120;28;20083;-66
2023/12/11 13:34:06;;;;;;;12.98;3.55;;;;;;;;;;5054866;28;20071;-66
2023/12/11 13:36:32;;;;;;;15.13;3.80;;;;;;;;;;5054897;28;20374;-66
2023/12/11 13:38:57;;;;;;;16.83;3.53;;;;;;;;;;5054890;28;20024;-66
2023/12/11 13:41:23;;;;;;;12.15;3.63;;;;;;;;;;5061693;28;20024;-65
2023/12/11 13:43:48;;;;;;;15.07;3.45;;;;;;;;;;5074825;28;20404;-66
2023/12/11 13:46:13;;;;;;;10.82;3.88;;;;;;;;;;5074294;28;20086;-66
2023/12/11 13:48:39;;;;;;;15.43;4.10;;;;;;;;;;5054582;28;20025;-65
2023/12/11 13:51:05;;;;;;;15.13;4.25;;;;;;;;;;5053302;28;20029;-65
2023/12/11 13:53:31;;;;;;;14.27;3.33;;;;;;;;;;5054638;28;20037;-66
2023/12/11 13:55:57;;;;;;;18.75;4.03;;;;;;;;;;5054362;28;20067;-66
2023/12/11 13:58:23;;;;;;;11.73;3.40;;;;;;;;;;5054497;28;20025;-66
2023/12/11 14:00:49;;;;;;;10.57;2.97;;;;;;;;;;5054245;28;20043;-66
2023/12/11 14:03:19;;;;;;;10.60;2.70;;;;;;;;;;5054001;28;20082;-66
2023/12/11 14:05:45;;;;;;;12.15;3.40;;;;;;;;;;5054631;28;20408;-66
2023/12/11 14:08:10;;;;;;;10.00;2.88;;;;;;;;;;5055335;28;20083;-65
2023/12/11 14:10:36;;;;;;;9.95;2.83;;;;;;;;;;5052958;28;20086;-66
2023/12/11 14:13:02;;;;;;;11.05;2.80;;;;;;;;;;5054581;28;20037;-66
2023/12/11 14:15:28;;;;;;;13.40;3.90;;;;;;;;;;5054116;28;20497;-65
2023/12/11 14:17:54;;;;;;;10.27;2.97;;;;;;;;;;5053998;28;20025;-65
2023/12/11 14:20:19;;;;;;;14.65;3.97;;;;;;;;;;5053909;28;20029;-66
2023/12/11 14:22:44;;;;;;;10.70;3.78;;;;;;;;;;5054076;28;20498;-66
2023/12/11 14:25:11;;;;;;;9.73;2.63;;;;;;;;;;5054121;28;20029;-65
2023/12/11 14:27:36;;;;;;;14.48;3.40;;;;;;;;;;5053141;28;20086;-65
2023/12/11 14:30:02;;;;;;;7.25;2.67;;;;;;;;;;5053497;28;20033;-65
2023/12/11 14:32:28;;;;;;;7.32;2.30;;;;;;;;;;5053815;28;20025;-66